Time;durP1;ratioP1;P1;durP2;ratioP2;P2;SDS_P1;SDS_P2;PMS_P1;PMS_P2;Temp;Humidity;BMP_temperature;BMP_pressure;BME280_temperature;BME280_humidity;BME280_pressure;Samples;Min_cycle;Max_cycle;Signal;HPM_P1;HPM_P2
2023/05/03 00:01:42;;;;;;;8.50;4.30;;;;;;;14.75;54.49;102625.12;107080;1267;25472;-50
2023/05/03 00:04:10;;;;;;;6.90;4.20;;;;;;;14.71;54.54;102622.71;107066;1272;25335;-50
2023/05/03 00:06:38;;;;;;;6.30;4.00;;;;;;;14.68;54.55;102619.94;107158;1267;25430;-49
2023/05/03 00:09:05;;;;;;;6.20;3.70;;;;;;;14.66;54.50;102617.34;107057;1273;25312;-49
2023/05/03 00:11:33;;;;;;;8.40;4.10;;;;;;;14.64;54.32;102613.86;107083;1267;25481;-50
2023/05/03 00:13:59;;;;;;;8.00;4.00;;;;;;;14.62;54.32;102611.60;107095;1271;24262;-50
2023/05/03 00:16:27;;;;;;;6.80;3.80;;;;;;;14.60;54.36;102609.00;107094;1267;25360;-50
2023/05/03 00:18:54;;;;;;;4.70;3.10;;;;;;;14.58;54.30;102604.83;106905;1271;25328;-50
2023/05/03 00:21:22;;;;;;;7.50;3.70;;;;;;;14.56;54.27;102605.38;107117;1267;26493;-49
2023/05/03 00:23:49;;;;;;;6.50;3.80;;;;;;;14.53;54.24;102606.97;107204;1267;25356;-50
2023/05/03 00:26:16;;;;;;;8.60;3.70;;;;;;;14.49;54.17;102605.27;107128;1267;24444;-50
2023/05/03 00:28:43;;;;;;;7.90;3.60;;;;;;;14.44;54.12;102607.23;107070;1266;25484;-49
2023/05/03 00:31:10;;;;;;;6.50;3.30;;;;;;;14.38;54.10;102605.52;107199;1267;22531;-50
2023/05/03 00:33:37;;;;;;;6.30;3.40;;;;;;;14.33;54.01;102598.58;106971;1268;25407;-48
2023/05/03 00:36:09;;;;;;;6.30;3.40;;;;;;;14.30;54.02;102597.91;106897;1267;25359;-50
2023/05/03 00:38:36;;;;;;;6.70;3.10;;;;;;;14.26;54.06;102596.35;106961;1267;22657;-50
2023/05/03 00:41:04;;;;;;;4.10;3.30;;;;;;;14.23;54.24;102598.81;106943;1273;25359;-49
2023/05/03 00:43:31;;;;;;;6.80;3.80;;;;;;;14.21;54.53;102597.77;107051;1273;25395;-49
2023/05/03 00:45:58;;;;;;;5.70;3.50;;;;;;;14.20;54.73;102600.73;106954;1272;22543;-50
2023/05/03 00:48:41;;;;;;;5.80;3.40;;;;;;;14.19;54.81;102598.14;107136;1274;24202;-49
2023/05/03 00:51:09;;;;;;;6.70;2.90;;;;;;;14.18;54.74;102596.74;107093;1270;25356;-49
2023/05/03 00:53:36;;;;;;;4.10;3.00;;;;;;;14.17;54.72;102592.74;106948;1267;25401;-49
2023/05/03 00:56:04;;;;;;;4.00;2.70;;;;;;;14.17;54.60;102589.44;107057;1269;25497;-48
2023/05/03 00:58:38;;;;;;;4.50;2.80;;;;;;;14.15;54.37;102587.35;107145;1267;23534;-49
2023/05/03 01:01:08;;;;;;;3.90;2.90;;;;;;;14.12;54.42;102582.14;107190;1266;25396;-49
2023/05/03 01:03:36;;;;;;;4.20;2.70;;;;;;;14.08;54.38;102581.30;106934;1266;25331;-48
2023/05/03 01:06:26;;;;;;;4.80;3.50;;;;;;;14.04;54.47;102581.84;106456;1267;25346;-49
2023/05/03 01:08:56;;;;;;;2.90;2.50;;;;;;;13.99;54.53;102580.32;106786;1267;25587;-49
2023/05/03 01:11:27;;;;;;;3.20;2.80;;;;;;;13.95;54.61;102579.64;106881;1273;22573;-49
2023/05/03 01:13:56;;;;;;;4.00;2.70;;;;;;;13.92;54.63;102583.49;106850;1267;22630;-51
2023/05/03 01:16:30;;;;;;;4.70;2.80;;;;;;;13.89;54.82;102586.30;106662;1267;22639;-49
2023/05/03 01:19:00;;;;;;;3.20;2.60;;;;;;;13.88;54.87;102584.23;106787;1267;24251;-49
2023/05/03 01:21:27;;;;;;;4.00;3.00;;;;;;;13.86;54.90;102584.59;106872;1257;24251;-49
2023/05/03 01:24:21;;;;;;;3.50;2.70;;;;;;;13.85;54.74;102582.66;107122;1269;25455;-49
2023/05/03 01:26:49;;;;;;;4.40;3.00;;;;;;;13.84;54.84;102576.22;107077;1266;22523;-51
2023/05/03 01:29:16;;;;;;;3.60;3.30;;;;;;;13.84;54.81;102574.65;107070;1269;25359;-50
2023/05/03 01:31:46;;;;;;;5.00;3.50;;;;;;;13.84;55.02;102578.14;106888;1273;25523;-48
2023/05/03 01:34:17;;;;;;;6.80;3.60;;;;;;;13.84;55.46;102574.66;107114;1256;24218;-50
2023/05/03 01:36:45;;;;;;;4.30;3.00;;;;;;;13.85;55.79;102575.52;106911;1267;24216;-50
2023/05/03 01:39:21;;;;;;;5.80;3.10;;;;;;;13.85;55.73;102575.16;106757;1274;25407;-49
2023/05/03 01:41:49;;;;;;;3.10;2.80;;;;;;;13.85;55.64;102569.58;107111;1272;22748;-49
2023/05/03 01:44:18;;;;;;;3.90;3.30;;;;;;;13.85;55.76;102567.31;107133;1268;22584;-50
2023/05/03 01:46:46;;;;;;;5.50;3.30;;;;;;;13.85;55.76;102563.99;107161;1260;22536;-50
2023/05/03 01:49:14;;;;;;;10.80;3.50;;;;;;;13.84;55.95;102558.26;107070;1266;25322;-49
2023/05/03 01:51:41;;;;;;;6.00;3.30;;;;;;;13.84;55.92;102557.20;107057;1274;24217;-49
2023/05/03 01:54:08;;;;;;;3.70;2.90;;;;;;;13.84;55.80;102555.29;107029;1267;25319;-49
2023/05/03 01:56:36;;;;;;;5.00;3.10;;;;;;;13.87;55.45;102557.52;106944;1272;25478;-49
2023/05/03 01:59:03;;;;;;;3.50;3.20;;;;;;;13.87;55.50;102556.13;107104;1273;24237;-50
2023/05/03 02:01:31;;;;;;;5.50;3.30;;;;;;;13.87;55.76;102557.02;107004;1267;25405;-49
2023/05/03 02:03:58;;;;;;;3.30;2.70;;;;;;;13.86;56.08;102558.94;106617;1276;25350;-50
2023/05/03 02:06:26;;;;;;;4.20;2.70;;;;;;;13.84;56.40;102557.91;106973;1269;25427;-50
2023/05/03 02:08:53;;;;;;;4.10;2.90;;;;;;;13.82;56.55;102558.27;107065;1271;25346;-49
2023/05/03 02:11:20;;;;;;;3.40;2.90;;;;;;;13.79;56.54;102556.37;106877;1268;22758;-49
2023/05/03 02:13:49;;;;;;;4.30;3.10;;;;;;;13.77;56.63;102560.92;106861;1274;25510;-49
2023/05/03 02:16:17;;;;;;;3.20;2.60;;;;;;;13.75;56.91;102562.15;107115;1262;25321;-49
2023/05/03 02:18:44;;;;;;;6.90;2.80;;;;;;;13.74;57.09;102558.15;107068;1267;25347;-50
2023/05/03 02:21:12;;;;;;;8.80;3.00;;;;;;;13.75;57.11;102553.77;106867;1273;25349;-51
2023/05/03 02:23:39;;;;;;;4.50;2.70;;;;;;;13.76;57.07;102549.77;107076;1270;25349;-49
2023/05/03 02:26:06;;;;;;;3.40;2.80;;;;;;;13.76;57.04;102552.73;106949;1272;24665;-50
2023/05/03 02:28:34;;;;;;;4.50;3.30;;;;;;;13.77;57.17;102550.61;107107;1267;25312;-50
2023/05/03 02:31:04;;;;;;;2.60;2.40;;;;;;;13.77;57.35;102554.11;107126;1267;24052;-50
2023/05/03 02:33:33;;;;;;;3.20;2.60;;;;;;;13.80;57.45;102549.90;107181;1267;23189;-50
2023/05/03 02:36:00;;;;;;;3.20;2.70;;;;;;;13.82;57.42;102553.38;106815;1272;25374;-50
2023/05/03 02:38:27;;;;;;;4.10;2.70;;;;;;;13.83;57.40;102554.06;107146;1267;22539;-50
2023/05/03 02:40:54;;;;;;;4.30;3.50;;;;;;;13.83;57.42;102557.55;107068;1270;24464;-51
2023/05/03 02:43:22;;;;;;;3.90;2.60;;;;;;;13.82;57.41;102561.06;107079;1270;25408;-50
2023/05/03 02:45:49;;;;;;;4.80;2.70;;;;;;;13.83;57.34;102559.13;106947;1267;25385;-50
2023/05/03 02:48:17;;;;;;;5.00;2.70;;;;;;;13.84;57.46;102560.01;106165;1270;1003001;-49
2023/05/03 02:50:45;;;;;;;3.40;2.90;;;;;;;13.86;57.47;102558.75;106410;1273;26522;-50
2023/05/03 02:53:12;;;;;;;3.10;2.60;;;;;;;13.87;57.53;102559.44;106684;1267;25356;-49
2023/05/03 02:55:39;;;;;;;4.60;2.50;;;;;;;13.88;57.47;102562.59;106838;1267;25324;-49
2023/05/03 02:58:08;;;;;;;2.80;2.40;;;;;;;13.89;57.60;102567.29;106788;1267;25423;-49
2023/05/03 03:00:36;;;;;;;2.50;2.30;;;;;;;13.91;57.70;102566.58;107001;1266;26505;-51
2023/05/03 03:03:03;;;;;;;4.60;2.90;;;;;;;13.92;57.67;102563.77;107060;1272;26656;-49
2023/05/03 03:05:31;;;;;;;4.80;3.30;;;;;;;13.94;57.67;102564.46;106907;1270;22533;-49
2023/05/03 03:07:58;;;;;;;4.10;2.90;;;;;;;13.95;57.37;102566.36;107056;1267;24592;-51
2023/05/03 03:10:25;;;;;;;3.40;2.70;;;;;;;13.96;57.18;102563.06;107122;1267;25518;-50
2023/05/03 03:12:53;;;;;;;2.70;2.50;;;;;;;13.96;57.05;102566.20;107043;1267;25318;-49
2023/05/03 03:15:27;;;;;;;3.10;2.60;;;;;;;13.95;57.09;102570.56;107097;1271;25331;-50
2023/05/03 03:17:57;;;;;;;3.80;2.40;;;;;;;13.95;57.18;102573.54;107108;1267;22762;-50
2023/05/03 03:20:24;;;;;;;6.20;2.90;;;;;;;13.96;57.39;102576.84;106465;1260;25382;-51
2023/05/03 03:22:51;;;;;;;4.80;3.00;;;;;;;13.97;57.61;102580.85;107014;1261;25364;-50
2023/05/03 03:25:19;;;;;;;3.90;3.20;;;;;;;13.99;57.65;102581.71;107024;1257;25526;-50
2023/05/03 03:27:46;;;;;;;4.80;3.00;;;;;;;14.02;57.71;102583.44;107114;1251;22702;-50
2023/05/03 03:30:14;;;;;;;8.00;2.80;;;;;;;14.05;58.02;102584.98;107015;1273;22528;-51
2023/05/03 03:33:05;;;;;;;7.00;3.10;;;;;;;14.13;58.19;102587.36;107082;1267;22853;-51
2023/05/03 03:35:35;;;;;;;4.60;3.00;;;;;;;14.25;58.40;102588.86;106821;1270;25379;-50
2023/05/03 03:38:03;;;;;;;4.20;2.60;;;;;;;14.43;58.52;102592.38;106984;1267;24276;-50
2023/05/03 03:40:31;;;;;;;3.00;2.60;;;;;;;14.66;58.01;102591.48;107038;1267;25356;-50
2023/05/03 03:42:58;;;;;;;4.00;3.10;;;;;;;14.83;57.35;102599.54;106692;1267;23880;-50
2023/05/03 03:45:26;;;;;;;3.30;2.70;;;;;;;14.93;57.22;102600.98;107065;1273;25322;-50
2023/05/03 03:47:53;;;;;;;4.00;2.50;;;;;;;14.96;57.58;102602.89;107081;1269;25593;-50
2023/05/03 03:50:20;;;;;;;3.00;2.70;;;;;;;14.97;57.60;102603.95;107133;1267;25321;-50
2023/05/03 03:52:48;;;;;;;3.40;2.40;;;;;;;15.00;57.41;102606.34;107016;1270;25477;-50
2023/05/03 03:55:15;;;;;;;4.20;2.20;;;;;;;15.04;57.39;102605.42;106789;1271;23879;-50
2023/05/03 03:57:43;;;;;;;3.40;2.60;;;;;;;15.08;57.38;102607.48;106890;1267;22524;-50
2023/05/03 04:00:11;;;;;;;3.10;2.60;;;;;;;15.10;57.51;102616.00;106791;1270;22559;-50
2023/05/03 04:02:45;;;;;;;3.70;2.70;;;;;;;15.14;57.61;102610.90;107234;1267;25359;-50
2023/05/03 04:05:16;;;;;;;3.10;2.50;;;;;;;15.17;57.71;102610.34;107143;1267;24346;-50
2023/05/03 04:07:44;;;;;;;3.30;2.60;;;;;;;15.20;57.86;102614.49;106797;1274;24276;-50
2023/05/03 04:10:12;;;;;;;2.80;2.50;;;;;;;15.23;58.04;102616.92;107099;1266;26650;-51
2023/05/03 04:12:40;;;;;;;2.90;2.50;;;;;;;15.26;58.02;102619.34;106909;1270;22639;-50
2023/05/03 04:15:08;;;;;;;3.70;2.40;;;;;;;15.30;58.03;102621.21;107056;1268;25793;-49
2023/05/03 04:17:35;;;;;;;2.90;2.20;;;;;;;15.34;58.20;102625.37;106805;1266;24398;-50
2023/05/03 04:20:08;;;;;;;2.40;2.20;;;;;;;15.37;58.27;102628.81;107083;1274;22530;-50
2023/05/03 04:22:37;;;;;;;2.90;2.60;;;;;;;15.41;58.39;102631.05;107011;1274;25516;-50
2023/05/03 04:25:09;;;;;;;2.40;2.00;;;;;;;15.46;58.62;102637.84;107067;1261;22780;-50
2023/05/03 04:27:37;;;;;;;4.10;2.30;;;;;;;15.51;58.58;102639.88;107098;1269;25564;-48
2023/05/03 04:30:05;;;;;;;2.90;2.20;;;;;;;15.55;58.58;102645.77;106867;1275;25450;-49
2023/05/03 04:32:39;;;;;;;2.80;2.20;;;;;;;15.61;58.59;102651.13;106487;1273;22575;-49
2023/05/03 04:35:11;;;;;;;2.50;2.20;;;;;;;15.65;58.19;102649.65;106714;1274;24180;-49
2023/05/03 04:37:42;;;;;;;4.00;2.30;;;;;;;15.69;57.88;102652.42;106870;1267;25436;-49
2023/05/03 04:40:11;;;;;;;3.00;2.10;;;;;;;15.74;57.77;102656.38;106903;1267;25272;-49
2023/05/03 04:42:42;;;;;;;4.30;2.30;;;;;;;15.78;57.78;102653.52;107001;1267;25359;-49
2023/05/03 04:45:10;;;;;;;2.40;2.00;;;;;;;15.82;57.77;102656.45;107075;1274;25445;-49
2023/05/03 04:47:38;;;;;;;2.70;2.00;;;;;;;15.85;57.69;102659.21;106991;1272;24200;-50
2023/05/03 04:50:09;;;;;;;2.50;2.10;;;;;;;15.88;57.66;102662.14;107190;1267;24395;-50
2023/05/03 04:52:38;;;;;;;2.70;2.00;;;;;;;15.91;57.49;102659.48;106860;1274;25328;-50
2023/05/03 04:55:06;;;;;;;2.90;1.80;;;;;;;15.95;57.19;102663.27;107093;1267;25408;-50
2023/05/03 04:57:33;;;;;;;3.40;2.00;;;;;;;16.00;56.97;102666.70;107137;1263;25346;-50
2023/05/03 05:00:00;;;;;;;2.40;2.00;;;;;;;16.04;56.75;102669.79;107186;1268;25392;-50
2023/05/03 05:02:28;;;;;;;2.80;1.80;;;;;;;16.09;56.47;102669.36;107088;1267;26503;-50
2023/05/03 05:04:57;;;;;;;4.30;1.90;;;;;;;16.13;56.01;102670.71;107143;1267;22623;-49
2023/05/03 05:07:24;;;;;;;3.50;1.80;;;;;;;16.17;55.72;102673.11;107071;1266;25399;-49
2023/05/03 05:09:52;;;;;;;3.10;1.70;;;;;;;16.20;55.62;102674.45;107127;1267;25319;-49
2023/05/03 05:12:19;;;;;;;2.30;2.10;;;;;;;16.24;55.57;102678.09;107116;1267;25487;-49
2023/05/03 05:14:47;;;;;;;2.90;2.20;;;;;;;16.27;55.38;102678.73;107106;1266;25359;-50
2023/05/03 05:17:14;;;;;;;3.20;2.60;;;;;;;16.29;55.10;102678.89;106793;1274;24859;-49
2023/05/03 05:19:41;;;;;;;1.70;1.60;;;;;;;16.30;54.80;102683.76;106914;1272;24265;-49
2023/05/03 05:22:08;;;;;;;3.10;1.90;;;;;;;16.32;54.92;102684.45;106938;1263;25340;-49
2023/05/03 05:24:42;;;;;;;2.50;1.70;;;;;;;16.35;54.50;102686.33;106984;1273;25331;-50
2023/05/03 05:27:09;;;;;;;2.80;1.70;;;;;;;16.38;54.29;102689.77;107065;1271;25628;-48
2023/05/03 05:29:37;;;;;;;4.70;1.70;;;;;;;16.51;54.57;102691.36;107234;1270;25401;-48
2023/05/03 05:32:04;;;;;;;2.70;1.80;;;;;;;16.86;54.65;102693.05;107145;1269;25367;-49
2023/05/03 05:34:32;;;;;;;3.20;1.60;;;;;;;17.44;53.58;102689.38;107109;1271;25434;-48
2023/05/03 05:37:11;;;;;;;1.50;1.40;;;;;;;18.20;51.61;102689.90;106812;1264;22534;-48
2023/05/03 05:39:38;;;;;;;2.60;1.70;;;;;;;18.97;50.09;102693.98;107041;1269;25321;-48
2023/05/03 05:42:06;;;;;;;1.50;1.40;;;;;;;19.74;48.33;102692.05;107007;1274;25340;-48
2023/05/03 05:44:33;;;;;;;1.40;1.30;;;;;;;20.49;46.84;102694.34;106851;1273;25379;-48
2023/05/03 05:47:01;;;;;;;1.90;1.60;;;;;;;21.23;45.18;102694.45;107066;1270;26615;-48
2023/05/03 05:49:29;;;;;;;1.60;1.30;;;;;;;21.99;43.16;102698.89;106733;1267;25376;-49
2023/05/03 05:51:56;;;;;;;5.80;1.40;;;;;;;22.62;41.55;102700.80;107113;1266;25337;-48
2023/05/03 05:54:23;;;;;;;3.10;1.70;;;;;;;23.12;40.42;102705.05;106475;1267;24250;-48
2023/05/03 05:56:51;;;;;;;2.60;1.50;;;;;;;23.45;39.42;102699.89;107095;1273;25548;-48
2023/05/03 05:59:18;;;;;;;3.80;1.70;;;;;;;23.68;38.77;102697.92;107118;1267;25381;-48
2023/05/03 06:01:46;;;;;;;2.90;1.40;;;;;;;23.94;38.23;102702.41;107176;1273;26528;-48
2023/05/03 06:04:16;;;;;;;3.90;1.50;;;;;;;24.22;37.59;102705.67;107058;1273;25899;-48
2023/05/03 06:06:44;;;;;;;2.10;1.50;;;;;;;24.50;36.95;102707.52;106956;1270;25386;-48
2023/05/03 06:09:13;;;;;;;3.00;1.40;;;;;;;24.70;36.34;102703.17;106925;1271;25356;-48
2023/05/03 06:11:54;;;;;;;2.10;1.70;;;;;;;24.82;35.82;102705.73;107010;1270;25368;-48
2023/05/03 06:14:21;;;;;;;2.50;1.20;;;;;;;24.88;35.92;102709.70;106627;1275;22558;-48
2023/05/03 06:16:49;;;;;;;5.10;1.40;;;;;;;24.91;35.62;102707.77;106888;1266;25487;-48
2023/05/03 06:19:17;;;;;;;2.40;1.40;;;;;;;24.87;35.58;102706.02;107087;1271;25407;-49
2023/05/03 06:21:44;;;;;;;2.00;1.30;;;;;;;24.81;35.75;102703.84;107132;1266;22515;-48
2023/05/03 06:24:19;;;;;;;1.80;1.30;;;;;;;24.74;35.52;102701.86;107210;1270;25363;-48
2023/05/03 06:26:48;;;;;;;2.00;1.10;;;;;;;24.60;35.74;102699.74;107090;1274;22521;-48
2023/05/03 06:29:17;;;;;;;1.30;1.20;;;;;;;24.51;35.72;102701.27;107121;1267;25389;-47
2023/05/03 06:31:44;;;;;;;3.10;1.30;;;;;;;24.48;35.90;102695.91;107114;1267;24219;-48
2023/05/03 06:34:12;;;;;;;1.20;1.00;;;;;;;24.52;35.77;102695.53;107791;1260;25436;-48
2023/05/03 06:36:41;;;;;;;1.30;1.20;;;;;;;24.59;35.78;102702.44;107475;1270;25471;-48
2023/05/03 06:39:10;;;;;;;2.10;1.50;;;;;;;24.68;35.91;102703.44;107417;1267;24205;-48
2023/05/03 06:41:37;;;;;;;2.00;1.40;;;;;;;24.71;35.83;102703.46;107025;1260;22521;-47
2023/05/03 06:44:06;;;;;;;1.50;1.20;;;;;;;24.69;36.09;102702.84;106957;1272;25600;-48
2023/05/03 06:46:33;;;;;;;1.70;1.40;;;;;;;24.68;35.97;102707.11;107211;1267;23184;-48
2023/05/03 06:49:01;;;;;;;1.60;1.40;;;;;;;24.65;36.22;102705.50;107249;1269;22529;-48
2023/05/03 06:51:29;;;;;;;4.70;1.90;;;;;;;24.62;36.27;102705.84;107034;1268;25216;-48
2023/05/03 06:54:05;;;;;;;2.60;1.20;;;;;;;24.61;36.33;102703.79;106947;1270;25516;-48
2023/05/03 06:56:32;;;;;;;1.30;1.10;;;;;;;24.56;36.52;102706.88;107032;1267;25347;-48
2023/05/03 06:59:00;;;;;;;3.00;1.60;;;;;;;24.51;36.73;102709.23;107545;1266;25318;-47
2023/05/03 07:01:27;;;;;;;1.70;1.50;;;;;;;24.54;36.47;102710.35;107209;1267;25312;-48
2023/05/03 07:03:54;;;;;;;3.20;1.40;;;;;;;24.64;36.51;102707.68;106943;1270;25392;-49
2023/05/03 07:06:22;;;;;;;2.20;1.30;;;;;;;24.77;36.50;102710.42;107185;1267;25407;-48
2023/05/03 07:08:51;;;;;;;3.60;1.40;;;;;;;24.93;36.23;102711.06;107270;1273;25318;-48
2023/05/03 07:11:24;;;;;;;1.50;1.40;;;;;;;25.08;36.01;102710.42;107340;1267;25411;-47
2023/05/03 07:13:54;;;;;;;2.00;1.50;;;;;;;25.22;35.86;102709.50;106887;1274;22524;-47
2023/05/03 07:16:21;;;;;;;1.80;1.40;;;;;;;25.42;35.97;102717.69;107202;1267;25472;-47
2023/05/03 07:18:49;;;;;;;2.50;1.10;;;;;;;25.64;35.50;102716.36;106971;1267;25346;-47
2023/05/03 07:21:16;;;;;;;2.00;1.50;;;;;;;25.83;35.00;102712.30;107135;1267;24299;-47
2023/05/03 07:23:43;;;;;;;4.60;1.50;;;;;;;25.90;34.91;102708.52;107266;1267;25354;-48
2023/05/03 07:26:10;;;;;;;2.00;1.40;;;;;;;25.85;35.14;102710.39;106822;1275;25488;-47
2023/05/03 07:28:37;;;;;;;1.90;1.40;;;;;;;25.74;35.29;102712.23;106858;1267;25293;-48
2023/05/03 07:31:04;;;;;;;1.90;1.60;;;;;;;25.59;35.41;102710.39;107169;1270;25340;-47
2023/05/03 07:33:36;;;;;;;1.50;1.30;;;;;;;25.39;35.75;102710.42;107011;1269;26486;-48
2023/05/03 07:36:04;;;;;;;1.30;1.20;;;;;;;25.13;36.49;102709.30;107001;1274;25600;-49
2023/05/03 07:38:32;;;;;;;3.90;1.80;;;;;;;24.84;36.63;102714.70;107016;1274;22814;-49
2023/05/03 07:41:00;;;;;;;1.90;1.50;;;;;;;24.52;37.10;102714.17;106921;1270;25327;-48
2023/05/03 07:43:28;;;;;;;2.40;1.50;;;;;;;24.16;38.02;102715.36;106766;1270;25322;-49
2023/05/03 07:45:55;;;;;;;2.30;1.30;;;;;;;23.84;38.89;102716.52;107181;1268;25358;-49
2023/05/03 07:48:23;;;;;;;2.60;1.60;;;;;;;23.56;39.34;102719.56;107151;1267;24315;-48
2023/05/03 07:50:50;;;;;;;3.30;1.40;;;;;;;23.32;39.68;102718.84;107208;1274;25315;-49
2023/05/03 07:53:17;;;;;;;4.20;1.60;;;;;;;23.09;40.21;102725.53;107094;1271;25337;-49
2023/05/03 07:55:45;;;;;;;2.50;1.70;;;;;;;22.87;40.95;102722.77;106981;1264;25334;-47
2023/05/03 07:58:13;;;;;;;3.20;1.70;;;;;;;22.70;41.32;102724.55;106647;1272;25315;-47
2023/05/03 08:00:40;;;;;;;1.70;1.50;;;;;;;22.56;41.61;102726.48;106827;1267;25395;-48
2023/05/03 08:03:07;;;;;;;2.30;1.40;;;;;;;22.44;42.12;102724.83;106727;1270;22662;-48
2023/05/03 08:05:35;;;;;;;2.80;1.70;;;;;;;22.32;42.36;102723.39;107076;1267;22652;-47
2023/05/03 08:08:04;;;;;;;4.10;1.80;;;;;;;22.21;42.68;102724.52;106978;1270;230965;-49
2023/05/03 08:10:36;;;;;;;2.20;1.60;;;;;;;22.08;43.01;102724.71;106832;1278;22588;-47
2023/05/03 08:13:05;;;;;;;2.60;1.40;;;;;;;21.95;43.38;102730.20;106450;1273;22983;-48
2023/05/03 08:15:32;;;;;;;2.00;1.80;;;;;;;21.82;43.69;102732.75;106718;1274;22790;-47
2023/05/03 08:17:59;;;;;;;1.80;1.50;;;;;;;21.76;44.06;102734.91;106798;1270;25355;-48
2023/05/03 08:20:27;;;;;;;1.70;1.40;;;;;;;21.72;44.30;102731.72;106977;1274;25371;-48
2023/05/03 08:22:58;;;;;;;2.30;1.70;;;;;;;21.67;44.55;102725.87;106796;1273;25322;-48
2023/05/03 08:25:27;;;;;;;1.80;1.70;;;;;;;21.64;44.44;102729.86;106818;1277;25387;-48
2023/05/03 08:27:54;;;;;;;2.00;1.50;;;;;;;21.57;44.67;102729.60;106875;1271;25384;-48
2023/05/03 08:30:21;;;;;;;2.70;1.70;;;;;;;21.48;45.25;102730.82;106709;1271;22642;-48
2023/05/03 08:32:48;;;;;;;4.20;1.50;;;;;;;21.43;45.81;102732.60;106672;1278;25703;-49
2023/05/03 08:35:16;;;;;;;4.80;1.60;;;;;;;21.41;45.78;102734.62;106976;1273;24265;-48
2023/05/03 08:37:44;;;;;;;2.30;1.80;;;;;;;21.42;45.44;102734.59;106589;1277;25379;-48
2023/05/03 08:40:13;;;;;;;3.00;1.50;;;;;;;21.43;45.65;102732.08;106951;1270;22523;-48
2023/05/03 08:42:44;;;;;;;1.80;1.70;;;;;;;21.44;45.81;102737.15;107052;1267;22542;-48
2023/05/03 08:45:14;;;;;;;;;;;;;;;21.43;45.79;102732.23;107025;1274;24187;-48
2023/05/03 08:47:44;;;;;;;1.80;1.70;;;;;;;21.41;45.80;102736.02;107084;1272;25294;-48
2023/05/03 08:50:13;;;;;;;2.60;1.70;;;;;;;21.38;46.40;102735.27;106833;1273;22536;-48
2023/05/03 08:52:41;;;;;;;2.30;1.60;;;;;;;21.37;46.02;102736.86;107077;1267;25226;-48
2023/05/03 08:55:09;;;;;;;2.10;1.70;;;;;;;21.35;46.10;102735.73;107134;1267;25308;-48
2023/05/03 08:57:37;;;;;;;2.20;1.70;;;;;;;21.32;46.29;102731.95;107104;1270;25406;-48
2023/05/03 09:00:09;;;;;;;1.90;1.70;;;;;;;21.29;46.84;102730.46;106810;1273;24230;-47
2023/05/03 09:02:40;;;;;;;4.00;2.00;;;;;;;21.28;46.66;102732.77;106933;1274;22523;-47
2023/05/03 09:05:14;;;;;;;2.60;1.70;;;;;;;21.27;46.75;102734.23;107039;1270;22538;-48
2023/05/03 09:08:02;;;;;;;3.40;1.60;;;;;;;21.27;46.76;102731.77;106875;1274;25370;-48
2023/05/03 09:10:30;;;;;;;2.00;1.70;;;;;;;21.28;46.47;102727.86;107134;1272;22768;-47
2023/05/03 09:12:59;;;;;;;2.80;2.00;;;;;;;21.27;46.08;102725.79;106889;1272;25573;-48
2023/05/03 09:16:09;;;;;;;5.20;2.60;;;;;;;21.24;46.44;102729.92;108983;1275;22528;-47
2023/05/03 09:18:36;;;;;;;4.50;1.80;;;;;;;21.21;46.77;102729.86;106790;1279;22549;-47
2023/05/03 09:21:03;;;;;;;3.00;1.80;;;;;;;21.19;46.67;102731.66;106817;1276;25346;-48
2023/05/03 09:23:30;;;;;;;5.00;1.80;;;;;;;21.18;46.52;102730.83;106589;1276;25352;-47
2023/05/03 09:25:58;;;;;;;1.90;1.50;;;;;;;21.16;46.96;102727.74;106430;1275;25335;-48
2023/05/03 09:28:26;;;;;;;2.10;1.70;;;;;;;21.15;47.34;102723.90;106518;1282;25407;-49
2023/05/03 09:31:05;;;;;;;3.90;1.80;;;;;;;21.15;47.11;102727.39;106672;1277;26596;-48
2023/05/03 09:33:33;;;;;;;1.70;1.50;;;;;;;21.16;47.27;102722.95;106882;1275;24190;-49
2023/05/03 09:36:01;;;;;;;2.40;1.70;;;;;;;21.18;47.03;102725.36;106557;1274;25360;-48
2023/05/03 09:38:32;;;;;;;3.20;1.70;;;;;;;21.19;46.64;102724.61;106172;1277;24386;-48
2023/05/03 09:41:04;;;;;;;2.30;2.10;;;;;;;21.19;46.64;102726.58;106290;1275;25343;-48
2023/05/03 09:43:36;;;;;;;2.70;2.00;;;;;;;21.17;46.68;102725.21;106390;1275;25380;-48
2023/05/03 09:46:10;;;;;;;3.30;1.60;;;;;;;21.16;46.46;102725.10;107166;1269;23249;-47
2023/05/03 09:48:38;;;;;;;2.30;1.30;;;;;;;21.15;46.16;102723.00;106765;1261;22570;-47
2023/05/03 09:51:05;;;;;;;2.80;1.30;;;;;;;21.15;45.98;102726.36;106966;1275;22536;-47
2023/05/03 09:53:35;;;;;;;2.20;1.60;;;;;;;21.15;46.53;102725.11;106763;1275;25441;-47
2023/05/03 09:56:03;;;;;;;1.80;1.40;;;;;;;21.18;46.52;102720.60;106800;1271;22530;-47
2023/05/03 09:58:33;;;;;;;1.90;1.30;;;;;;;21.22;46.30;102722.77;106520;1275;24401;-47
2023/05/03 10:01:01;;;;;;;2.40;1.80;;;;;;;21.25;46.31;102721.77;106739;1276;23511;-47
2023/05/03 10:03:33;;;;;;;3.00;1.50;;;;;;;21.28;46.26;102721.30;107747;1267;22620;-48
2023/05/03 10:06:02;;;;;;;2.70;1.50;;;;;;;21.32;46.36;102722.95;107166;1275;24242;-48
2023/05/03 10:08:33;;;;;;;4.40;1.70;;;;;;;21.35;46.34;102724.95;106890;1275;25469;-48
2023/05/03 10:11:04;;;;;;;1.40;1.30;;;;;;;21.37;46.14;102728.23;106613;1274;22616;-48
2023/05/03 10:13:31;;;;;;;2.30;1.40;;;;;;;21.39;46.20;102732.91;106682;1274;25554;-48
2023/05/03 10:16:04;;;;;;;2.70;1.50;;;;;;;21.40;46.22;102731.81;106708;1270;25354;-48
2023/05/03 10:18:31;;;;;;;3.20;1.30;;;;;;;21.38;46.08;102729.41;107242;1275;22444;-48
2023/05/03 10:21:08;;;;;;;11.10;2.10;;;;;;;21.35;46.03;102730.60;107080;1275;24215;-48
2023/05/03 10:23:35;;;;;;;1.40;1.20;;;;;;;21.30;46.26;102728.11;106763;1276;25331;-48
2023/05/03 10:26:12;;;;;;;1.20;1.10;;;;;;;21.29;46.52;102728.68;106742;1271;25374;-48
2023/05/03 10:28:39;;;;;;;3.30;1.80;;;;;;;21.30;46.51;102726.17;107056;1279;25490;-48
2023/05/03 10:31:45;;;;;;;2.20;2.00;;;;;;;21.33;46.42;102722.19;104361;1259;1003689;-48
2023/05/03 10:34:19;;;;;;;2.30;1.30;;;;;;;21.37;46.29;102724.69;106673;1279;22552;-48
2023/05/03 10:36:49;;;;;;;2.30;1.40;;;;;;;21.40;46.06;102721.58;106714;1276;25887;-48
2023/05/03 10:39:18;;;;;;;2.90;1.80;;;;;;;21.42;46.29;102719.58;106943;1274;25425;-48
2023/05/03 10:41:47;;;;;;;2.10;1.40;;;;;;;21.43;46.11;102720.96;106963;1274;22925;-47
2023/05/03 10:44:53;;;;;;;1.80;1.50;;;;;;;21.40;46.20;102721.77;106782;1275;25280;-48
2023/05/03 10:47:23;;;;;;;4.40;1.60;;;;;;;21.35;46.23;102722.48;106163;1281;22537;-48
2023/05/03 10:50:15;;;;;;;2.30;1.50;;;;;;;21.32;46.12;102721.89;106299;1280;25314;-48
2023/05/03 10:52:42;;;;;;;2.80;1.60;;;;;;;21.30;46.27;102721.59;106592;1280;22540;-48
2023/05/03 10:55:09;;;;;;;2.40;1.50;;;;;;;21.30;46.46;102722.81;106673;1273;22757;-48
2023/05/03 10:57:38;;;;;;;3.60;1.70;;;;;;;21.32;46.60;102725.41;106207;1280;24049;-47
2023/05/03 11:00:15;;;;;;;2.30;1.50;;;;;;;21.34;46.44;102726.23;106052;1280;23893;-47
2023/05/03 11:03:16;;;;;;;2.20;1.70;;;;;;;21.34;46.74;102730.09;106067;1280;24278;-48
2023/05/03 11:05:44;;;;;;;2.80;1.60;;;;;;;21.31;46.89;102739.91;106134;1276;25516;-47
2023/05/03 11:08:18;;;;;;;2.40;1.60;;;;;;;21.28;46.91;102741.25;106209;1281;22783;-47
2023/05/03 11:10:46;;;;;;;2.50;1.60;;;;;;;21.26;46.89;102740.44;106284;1284;25307;-47
2023/05/03 11:13:14;;;;;;;2.30;1.70;;;;;;;21.27;46.78;102743.20;106668;1280;25390;-48
2023/05/03 11:15:41;;;;;;;2.80;1.70;;;;;;;21.29;46.78;102738.25;106449;1278;22531;-47
2023/05/03 11:18:10;;;;;;;3.50;1.60;;;;;;;21.30;46.74;102736.59;106697;1281;24230;-47
2023/05/03 11:20:37;;;;;;;3.20;1.40;;;;;;;21.31;46.73;102733.39;106448;1285;22538;-47
2023/05/03 11:23:08;;;;;;;2.50;1.40;;;;;;;21.34;46.98;102736.30;106335;1282;22915;-47
2023/05/03 11:25:35;;;;;;;4.90;1.50;;;;;;;21.36;46.81;102733.20;106470;1275;24233;-47
2023/05/03 11:28:05;;;;;;;2.10;1.50;;;;;;;21.39;46.77;102733.61;107154;1267;22557;-48